• Join FlightAware (Why Join?)
  • Login
  • US Flag 
05:17AM EDT


 

Airport Tracker/Info


-or-


 

Live Flight TrackerFlight Track Log ✈ ASA525 ✈ 22-Jun-2013 ✈ KBUR - KSEA

Flight Track Log - Related Links

Times and Time Zones

All times are in EDT time to prevent confusion due to time zone crossing. See the ASA525 flight status page for this flight to view local times or setup timezone preferences in your user account.

Time Position Orientation Groundspeed Altitude Reporting Facility
EDT Latitude Longitude Course Direction KTS MPH feet Rate Location/Type
02:04PM 34.1833 -118.3667 220° Southwest 166 191 2,300  Level Southern California TRACON
02:05PM 34.1264 -118.4236 220° Southwest 204 235 5,400 2,280 Climbing Los Angeles Center
02:06PM 34.1739 -118.4856 313° West 249 287 7,900 2,460 Climbing Los Angeles Center
02:07PM 34.2447 -118.5297 333° Northwest 282 325 10,500 1,980 Climbing Los Angeles Center
02:08PM 34.3300 -118.5797 334° Northwest 339 390 12,000 2,100 Climbing Los Angeles Center
02:09PM 34.4239 -118.6350 334° Northwest 376 433 14,900 2,820 Climbing Los Angeles Center
02:10PM 34.5192 -118.6914 334° Northwest 382 440 17,900 2,700 Climbing Los Angeles Center
02:11PM 34.6161 -118.7481 334° Northwest 388 447 20,600 2,640 Climbing Los Angeles Center
02:13PM 34.7372 -118.8233 333° Northwest 408 470 23,400 2,400 Climbing Los Angeles Center
02:14PM 34.8492 -118.8714 341° North 438 504 25,600 1,980 Climbing Los Angeles Center
02:15PM 34.9658 -118.9050 347° North 439 505 27,500 1,740 Climbing Los Angeles Center
02:16PM 35.0892 -118.9419 346° North 456 525 29,200 1,620 Climbing Los Angeles Center
02:17PM 35.2178 -118.9781 347° North 472 543 30,900 2,040 Climbing Los Angeles Center
02:18PM 35.3697 -119.0239 346° North 474 545 33,500 1,800 Climbing Los Angeles Center
02:19PM 35.4914 -119.0600 346° North 460 529 35,100 1,500 Climbing Los Angeles Center
02:20PM 35.6386 -119.1036 346° North 455 524 37,000 1,380 Climbing Los Angeles Center
02:21PM 35.7617 -119.1400 347° North 458 527 38,000 480 Climbing Los Angeles Center
02:22PM 35.8803 -119.1742 347° North 448 516 38,000  Level Los Angeles Center
02:23PM 36.0233 -119.2183 346° North 444 511 38,000  Level Los Angeles Center
02:24PM 36.1431 -119.2542 346° North 444 511 38,000  Level Los Angeles Center
02:25PM 36.2617 -119.2900 346° North 442 509 38,000 480 Level Los Angeles Center
02:26PM 36.3819 -119.3272 346° North 446 513 39,100 900 Climbing Los Angeles Center
02:27PM 36.4983 -119.3619 347° North 436 502 39,900 420 Climbing Los Angeles Center
02:28PM 36.6411 -119.4050 346° North 439 505 40,000  Climbing Los Angeles Center
02:30PM 36.8061 -119.4561 346° North 439 505 40,000  Level Oakland Center
02:31PM 36.9222 -119.4897 347° North 436 502 40,000  Level Oakland Center
02:32PM 37.0408 -119.5261 346° North 439 505 40,000  Level Oakland Center
02:33PM 37.1583 -119.5614 347° North 436 502 40,000  Level Oakland Center
02:34PM 37.2756 -119.5981 346° North 436 502 40,000  Level Oakland Center
02:35PM 37.3936 -119.6353 346° North 432 497 40,000  Level Oakland Center
02:36PM 37.5328 -119.6794 346° North 430 495 40,000  Level Oakland Center
02:37PM 37.6494 -119.7139 347° North 431 496 40,000  Level Oakland Center
02:38PM 37.7658 -119.7514 346° North 432 497 40,000  Level Oakland Center
02:39PM 37.8825 -119.7881 346° North 432 497 40,000  Level Oakland Center
02:40PM 38.0014 -119.8239 347° North 438 504 40,000  Level Oakland Center
02:41PM 38.1183 -119.8614 346° North 435 501 40,000  Level Oakland Center
02:42PM 38.2339 -119.8997 345° North 432 497 40,000  Level Oakland Center
02:43PM 38.3753 -119.9442 346° North 434 499 40,000  Level Oakland Center
02:44PM 38.4933 -119.9811 346° North 437 503 40,000  Level Oakland Center
02:45PM 38.6119 -120.0200 346° North 439 505 40,000  Level Oakland Center
02:46PM 38.7308 -120.0575 346° North 441 507 40,000  Level Oakland Center
02:47PM 38.8492 -120.0969 345° North 442 509 40,000  Level Oakland Center
02:48PM 38.9672 -120.1350 346° North 442 509 40,000  Level Oakland Center
02:49PM 39.0864 -120.1731 346° North 442 509 40,000  Level Oakland Center
02:50PM 39.2289 -120.2186 346° North 440 506 40,000  Level Oakland Center
02:51PM 39.3456 -120.2586 345° North 437 503 40,000  Level Oakland Center
02:52PM 39.4636 -120.2958 346° North 438 504 40,000  Level Oakland Center
02:53PM 39.5800 -120.3353 345° North 433 498 40,000  Level Oakland Center
02:54PM 39.6956 -120.3736 346° North 431 496 40,000  Level Oakland Center
02:55PM 39.8106 -120.4111 346° North 428 493 40,000  Level Oakland Center
02:56PM 39.9244 -120.4503 345° North 425 489 40,000  Level Oakland Center
02:57PM 40.0581 -120.4942 346° North 426 490 40,000  Level Oakland Center
02:58PM 40.1706 -120.5319 346° North 421 484 40,000  Level Oakland Center
02:59PM 40.2836 -120.5708 345° North 423 487 40,000  Level Oakland Center
03:00PM 40.3961 -120.6067 346° North 420 483 40,000  Level Oakland Center
03:01PM 40.5147 -120.6483 345° North 421 484 40,000  Level Seattle Center
03:02PM 40.6294 -120.6858 346° North 433 498 40,000  Level Oakland Center
03:04PM 40.7436 -120.7264 345° North 424 488 40,000  Level Oakland Center
03:05PM 40.8594 -120.7664 345° North 428 493 40,000  Level Seattle Center
03:06PM 40.9964 -120.8150 345° North 426 490 40,000  Level Seattle Center
03:07PM 41.1108 -120.8550 345° North 426 490 40,000  Level Seattle Center
03:08PM 41.2281 -120.8939 346° North 433 498 40,000  Level Seattle Center
03:09PM 41.3406 -120.9339 345° North 423 487 40,000  Level Seattle Center
03:10PM 41.4542 -120.9742 345° North 424 488 40,000  Level Seattle Center
03:11PM 41.5681 -121.0150 345° North 423 487 40,000  Level Seattle Center
03:12PM 41.6817 -121.0544 345° North 424 488 40,000  Level Seattle Center
03:13PM 41.7953 -121.0950 345° North 423 487 40,000  Level Seattle Center
03:14PM 41.9108 -121.1367 345° North 432 497 40,000  Level Seattle Center
03:15PM 42.0469 -121.1839 346° North 427 491 40,000  Level Seattle Center
03:16PM 42.1611 -121.2256 345° North 427 491 40,000  Level Seattle Center
03:17PM 42.2764 -121.2661 345° North 435 501 40,000  Level Seattle Center
03:18PM 42.3908 -121.3086 345° North 430 495 40,000  Level Seattle Center
03:19PM 42.5064 -121.3494 345° North 434 499 40,000  Level Seattle Center
03:20PM 42.6217 -121.3925 345° North 437 503 40,000  Level Seattle Center
03:21PM 42.7364 -121.4339 345° North 432 497 40,000  Level Seattle Center
03:22PM 42.8514 -121.4781 344° North 432 497 40,000  Level Seattle Center
03:23PM 42.9886 -121.5275 345° North 429 494 40,000  Level Seattle Center
03:24PM 43.1031 -121.5683 345° North 427 491 40,000  Level Seattle Center
03:25PM 43.2194 -121.6100 345° North 431 496 40,000  Level Seattle Center
03:26PM 43.3350 -121.6536 345° North 431 496 40,000  Level Seattle Center
03:27PM 43.4506 -121.6964 345° North 431 496 40,000  Level Seattle Center
03:28PM 43.5661 -121.7400 345° North 432 497 40,000  Level Seattle Center
03:29PM 43.6817 -121.7847 344° North 431 496 40,000  Level Seattle Center
03:30PM 43.7975 -121.8281 345° North 433 498 40,000  Level Seattle Center
03:31PM 43.9331 -121.8794 345° North 442 509 40,000  Level Seattle Center
03:32PM 44.0436 -121.9186 346° North 443 510 40,000  Level Seattle Center
03:33PM 44.1608 -121.9644 344° North 441 507 40,000  Level Seattle Center
03:34PM 44.2789 -122.0086 345° North 442 509 40,000  Level Seattle Center
03:35PM 44.4200 -122.0642 344° North 440 506 40,000  Level Seattle Center
03:36PM 44.5356 -122.1086 345° North 435 501 40,000  Level Seattle Center
03:37PM 44.6528 -122.1550 344° North 437 503 40,000  Level Seattle Center
03:38PM 44.7681 -122.2006 344° North 434 499 40,000  Level Seattle Center
03:39PM 44.8739 -122.2422 344° North 433 498 40,000  Level Seattle Center
03:40PM 44.9864 -122.2878 344° North 425 489 40,000  Level Seattle Center
03:41PM 45.1267 -122.3419 345° North 438 504 40,000  Level Seattle Center
03:42PM 45.2422 -122.3881 344° North 436 502 40,000  Level Seattle Center
03:43PM 45.3564 -122.4333 344° North 431 496 40,000 -480 Level Seattle Center
03:44PM 45.4717 -122.4806 344° North 433 498 39,100 -900 Descending Seattle Center
03:45PM 45.5906 -122.5278 344° North 443 510 38,200 -1,140 Descending Seattle Center
03:46PM 45.7075 -122.5731 345° North 440 506 36,800 -2,280 Descending Seattle Center
03:47PM 45.8264 -122.6089 348° North 440 506 33,600 -3,360 Descending Seattle Center
03:48PM 45.9475 -122.6400 350° North 445 512 30,000 -3,000 Descending Seattle Center
03:49PM 46.0936 -122.6775 350° North 446 513 27,600 -2,280 Descending Seattle Center
03:50PM 46.2022 -122.6972 353° North 406 467 25,400 -2,100 Descending Seattle Center
03:51PM 46.3008 -122.7092 355° North 401 461 23,400 -2,400 Descending Seattle Center
03:52PM 46.4086 -122.6822 10° North 398 458 20,600 -2,820 Descending Seattle Center
03:54PM 46.5339 -122.6569 North 380 437 17,700 -2,700 Descending Seattle Center
03:55PM 46.6331 -122.6350 North 365 420 15,200 -2,400 Descending Seattle Center
03:56PM 46.7350 -122.6125 North 354 407 12,900 -2,100 Descending Seattle Center
03:57PM 46.8269 -122.5911 North 337 388 11,000 -1,440 Descending Seattle Center
03:58PM 46.9142 -122.5700 North 318 366 10,000 -1,200 Descending Seattle Center
03:59PM 46.9781 -122.4869 42° Northeast 288 331 8,600 -1,320 Descending Seattle Center
04:00PM 47.0314 -122.4092 45° Northeast 271 312 7,400 -1,080 Descending Seattle Center
04:01PM 47.0847 -122.3342 44° Northeast 267 307 6,400 -1,080 Descending Seattle Center
04:02PM 47.1658 -122.3194 North 273 314 5,300 -1,080 Descending Seattle Center
04:03PM 47.2408 -122.3197 360° North 272 313 4,300 -1,200 Descending Seattle Center
04:04PM 47.3092 -122.3189 360° North 242 278 2,900 -1,200 Descending Seattle Center
04:05PM 47.3628 -122.3186 360° North 195 224 1,900 -900 Descending Seattle Center
04:06PM 47.4072 -122.3186 360° North 150 173 1,100 -780 Descending Seattle Center
04:07PM 47.4442 -122.3181 North 136 157 400 -720 Descending Seattle Center
04:09PM 47.4499 -122.3118 37° Northeast  Level Estimated